Urb Los Arboles, Puerto Rico
Current Conditions -  °F | °C
As of 7:56 AM on Saturday 01 Nov 2014 (Local Time) from TJSJ Reporting Station
Scattered Clouds Scattered Clouds  
Wind Chill: 82°   Ceiling: Unl
Heat Index: 90°   Visibility: 10mi
Dew Point: 77°   Wind: 0mph
Humidity: 85%   Direction: NA
Pressure: 29.98"   Gusts: NA
Location:  18.4083°N, 65.981°W
Report Text: TJSJ 011156Z 00000KT 10SM FEW032 SCT085 SCT120 28/25 A2998 RMK AO2 SLP152 T02780250 10278 20256 53024
Loading
Personal Weather Stations






























Interactive Weather Map
Tropical Storm Tracking
New forecast layout! Learn more

10-Day Weather Forecast

Advertisements
Track Severe Weather on mobile